sensor_id;sensor_type;location;lat;lon;timestamp;pressure;altitude;pressure_sealevel;temperature;humidity
62333;BME280;48624;49.812;8.562;2022-10-31T00:01:57;101026.22;;;10.12;100.00
62333;BME280;48624;49.812;8.562;2022-10-31T00:04:22;101034.16;;;10.12;100.00
62333;BME280;48624;49.812;8.562;2022-10-31T00:06:47;101031.09;;;9.88;100.00
62333;BME280;48624;49.812;8.562;2022-10-31T00:09:13;101028.88;;;9.96;100.00
62333;BME280;48624;49.812;8.562;2022-10-31T00:11:38;101038.94;;;10.05;100.00
62333;BME280;48624;49.812;8.562;2022-10-31T00:14:03;101043.13;;;10.09;100.00
62333;BME280;48624;49.812;8.562;2022-10-31T00:16:29;101039.88;;;10.20;100.00
62333;BME280;48624;49.812;8.562;2022-10-31T00:18:58;101036.19;;;10.23;100.00
62333;BME280;48624;49.812;8.562;2022-10-31T00:21:25;101033.53;;;10.23;100.00
62333;BME280;48624;49.812;8.562;2022-10-31T00:23:50;101038.69;;;10.42;100.00
62333;BME280;48624;49.812;8.562;2022-10-31T00:26:16;101040.88;;;10.50;100.00
62333;BME280;48624;49.812;8.562;2022-10-31T00:28:42;101041.13;;;10.45;100.00
62333;BME280;48624;49.812;8.562;2022-10-31T00:31:09;101042.97;;;10.59;100.00
62333;BME280;48624;49.812;8.562;2022-10-31T00:33:36;101036.56;;;10.63;100.00
62333;BME280;48624;49.812;8.562;2022-10-31T00:36:03;101033.75;;;10.81;100.00
62333;BME280;48624;49.812;8.562;2022-10-31T00:38:29;101035.16;;;10.72;100.00
62333;BME280;48624;49.812;8.562;2022-10-31T00:40:54;101045.00;;;10.70;100.00
62333;BME280;48624;49.812;8.562;2022-10-31T00:43:20;101047.94;;;10.80;100.00
62333;BME280;48624;49.812;8.562;2022-10-31T00:45:45;101040.69;;;10.83;100.00
62333;BME280;48624;49.812;8.562;2022-10-31T00:48:10;101051.28;;;10.83;100.00
62333;BME280;48624;49.812;8.562;2022-10-31T00:50:37;101053.84;;;10.85;100.00
62333;BME280;48624;49.812;8.562;2022-10-31T00:53:03;101057.25;;;10.87;100.00
62333;BME280;48624;49.812;8.562;2022-10-31T00:55:28;101055.81;;;10.81;100.00
62333;BME280;48624;49.812;8.562;2022-10-31T00:57:53;101058.97;;;10.88;100.00
62333;BME280;48624;49.812;8.562;2022-10-31T01:00:19;101061.81;;;10.85;100.00
62333;BME280;48624;49.812;8.562;2022-10-31T01:02:44;101051.94;;;10.87;100.00
62333;BME280;48624;49.812;8.562;2022-10-31T01:05:10;101054.59;;;10.73;100.00
62333;BME280;48624;49.812;8.562;2022-10-31T01:07:36;101066.09;;;10.72;100.00
62333;BME280;48624;49.812;8.562;2022-10-31T01:10:02;101073.78;;;10.76;100.00
62333;BME280;48624;49.812;8.562;2022-10-31T01:12:27;101068.66;;;10.73;100.00
62333;BME280;48624;49.812;8.562;2022-10-31T01:14:52;101064.19;;;10.59;100.00
62333;BME280;48624;49.812;8.562;2022-10-31T01:17:18;101064.63;;;10.51;100.00
62333;BME280;48624;49.812;8.562;2022-10-31T01:19:43;101057.91;;;10.30;100.00
62333;BME280;48624;49.812;8.562;2022-10-31T01:22:09;101055.13;;;10.47;100.00
62333;BME280;48624;49.812;8.562;2022-10-31T01:24:35;101067.53;;;10.14;100.00
62333;BME280;48624;49.812;8.562;2022-10-31T01:27:00;101060.53;;;10.30;100.00
62333;BME280;48624;49.812;8.562;2022-10-31T01:29:25;101057.38;;;10.39;100.00
62333;BME280;48624;49.812;8.562;2022-10-31T01:31:50;101056.69;;;10.35;100.00
62333;BME280;48624;49.812;8.562;2022-10-31T01:34:17;101057.22;;;10.26;100.00
62333;BME280;48624;49.812;8.562;2022-10-31T01:36:44;101062.75;;;10.37;100.00
62333;BME280;48624;49.812;8.562;2022-10-31T01:39:13;101063.50;;;10.39;100.00
62333;BME280;48624;49.812;8.562;2022-10-31T01:41:42;101063.34;;;10.43;100.00
62333;BME280;48624;49.812;8.562;2022-10-31T01:49:28;101058.41;;;10.36;100.00
62333;BME280;48624;49.812;8.562;2022-10-31T01:51:58;101054.72;;;10.39;100.00
62333;BME280;48624;49.812;8.562;2022-10-31T01:54:31;101045.16;;;10.36;100.00
62333;BME280;48624;49.812;8.562;2022-10-31T01:56:58;101043.34;;;10.37;100.00
62333;BME280;48624;49.812;8.562;2022-10-31T01:59:27;101038.84;;;10.39;100.00
62333;BME280;48624;49.812;8.562;2022-10-31T02:01:54;101032.59;;;10.40;100.00
62333;BME280;48624;49.812;8.562;2022-10-31T02:04:21;101034.22;;;10.43;100.00
62333;BME280;48624;49.812;8.562;2022-10-31T02:07:13;101033.13;;;10.47;100.00
62333;BME280;48624;49.812;8.562;2022-10-31T02:09:40;101034.47;;;10.54;100.00
62333;BME280;48624;49.812;8.562;2022-10-31T02:12:06;101030.13;;;10.53;100.00
62333;BME280;48624;49.812;8.562;2022-10-31T02:14:33;101039.56;;;10.57;100.00
62333;BME280;48624;49.812;8.562;2022-10-31T02:16:58;101036.06;;;10.57;100.00
62333;BME280;48624;49.812;8.562;2022-10-31T02:19:31;101032.38;;;10.59;100.00
62333;BME280;48624;49.812;8.562;2022-10-31T02:22:20;101027.47;;;10.53;100.00
62333;BME280;48624;49.812;8.562;2022-10-31T02:31:16;101027.81;;;10.47;100.00
62333;BME280;48624;49.812;8.562;2022-10-31T02:36:24;101029.31;;;10.51;100.00
62333;BME280;48624;49.812;8.562;2022-10-31T02:41:49;101031.09;;;10.04;100.00
62333;BME280;48624;49.812;8.562;2022-10-31T02:44:22;101024.41;;;10.12;100.00
62333;BME280;48624;49.812;8.562;2022-10-31T02:46:57;101028.09;;;10.10;100.00
62333;BME280;48624;49.812;8.562;2022-10-31T02:49:45;101035.22;;;9.93;100.00
62333;BME280;48624;49.812;8.562;2022-10-31T02:54:45;101038.88;;;9.75;100.00
62333;BME280;48624;49.812;8.562;2022-10-31T02:57:11;101040.63;;;9.58;100.00
62333;BME280;48624;49.812;8.562;2022-10-31T02:59:46;101041.22;;;9.47;100.00
62333;BME280;48624;49.812;8.562;2022-10-31T03:05:30;101039.94;;;9.38;100.00
62333;BME280;48624;49.812;8.562;2022-10-31T03:08:03;101037.84;;;9.27;100.00
62333;BME280;48624;49.812;8.562;2022-10-31T03:10:47;101039.38;;;9.15;100.00
62333;BME280;48624;49.812;8.562;2022-10-31T03:16:15;101034.50;;;9.24;100.00
62333;BME280;48624;49.812;8.562;2022-10-31T03:21:44;101034.13;;;9.32;100.00
62333;BME280;48624;49.812;8.562;2022-10-31T03:24:12;101031.72;;;9.27;100.00
62333;BME280;48624;49.812;8.562;2022-10-31T03:26:42;101028.16;;;9.44;100.00
62333;BME280;48624;49.812;8.562;2022-10-31T03:29:11;101025.19;;;9.50;100.00
62333;BME280;48624;49.812;8.562;2022-10-31T03:32:24;101029.81;;;9.63;100.00
62333;BME280;48624;49.812;8.562;2022-10-31T03:34:30;101018.03;;;9.68;100.00
62333;BME280;48624;49.812;8.562;2022-10-31T03:36:59;101021.78;;;9.64;100.00
62333;BME280;48624;49.812;8.562;2022-10-31T03:39:27;101010.34;;;9.80;100.00
62333;BME280;48624;49.812;8.562;2022-10-31T03:41:57;101012.47;;;9.89;100.00
62333;BME280;48624;49.812;8.562;2022-10-31T03:44:26;101016.56;;;9.95;100.00
62333;BME280;48624;49.812;8.562;2022-10-31T03:46:52;101000.44;;;9.99;100.00
62333;BME280;48624;49.812;8.562;2022-10-31T03:49:18;101002.06;;;10.02;100.00
62333;BME280;48624;49.812;8.562;2022-10-31T03:51:49;101005.19;;;10.09;100.00
62333;BME280;48624;49.812;8.562;2022-10-31T03:54:36;101011.19;;;10.12;100.00
62333;BME280;48624;49.812;8.562;2022-10-31T03:57:25;101005.63;;;10.17;100.00
62333;BME280;48624;49.812;8.562;2022-10-31T04:00:03;101007.94;;;10.23;100.00
62333;BME280;48624;49.812;8.562;2022-10-31T04:02:32;101000.75;;;10.25;100.00
62333;BME280;48624;49.812;8.562;2022-10-31T04:04:59;101001.19;;;10.18;100.00
62333;BME280;48624;49.812;8.562;2022-10-31T04:07:28;101005.31;;;10.07;100.00
62333;BME280;48624;49.812;8.562;2022-10-31T04:09:56;101011.09;;;10.14;100.00
62333;BME280;48624;49.812;8.562;2022-10-31T04:12:26;101005.31;;;10.07;100.00
62333;BME280;48624;49.812;8.562;2022-10-31T04:14:54;101012.88;;;10.13;100.00
62333;BME280;48624;49.812;8.562;2022-10-31T04:17:21;101011.94;;;10.14;100.00
62333;BME280;48624;49.812;8.562;2022-10-31T04:19:48;101008.53;;;10.12;100.00
62333;BME280;48624;49.812;8.562;2022-10-31T04:22:13;101006.25;;;9.90;100.00
62333;BME280;48624;49.812;8.562;2022-10-31T04:24:39;101017.34;;;9.81;100.00
62333;BME280;48624;49.812;8.562;2022-10-31T04:27:05;101006.59;;;10.00;100.00
62333;BME280;48624;49.812;8.562;2022-10-31T04:29:31;101007.44;;;10.00;100.00
62333;BME280;48624;49.812;8.562;2022-10-31T04:31:56;101009.41;;;9.65;100.00
62333;BME280;48624;49.812;8.562;2022-10-31T04:34:21;101009.69;;;9.92;100.00
62333;BME280;48624;49.812;8.562;2022-10-31T04:36:47;101007.38;;;9.86;100.00
62333;BME280;48624;49.812;8.562;2022-10-31T04:39:12;101020.34;;;9.75;100.00
62333;BME280;48624;49.812;8.562;2022-10-31T04:41:37;101019.75;;;9.69;100.00
62333;BME280;48624;49.812;8.562;2022-10-31T04:44:03;101021.94;;;9.61;100.00
62333;BME280;48624;49.812;8.562;2022-10-31T04:46:28;101020.59;;;9.54;100.00
62333;BME280;48624;49.812;8.562;2022-10-31T04:48:53;101017.78;;;9.57;100.00
62333;BME280;48624;49.812;8.562;2022-10-31T04:51:19;101024.16;;;9.53;100.00
62333;BME280;48624;49.812;8.562;2022-10-31T04:53:44;101017.41;;;9.47;100.00
62333;BME280;48624;49.812;8.562;2022-10-31T04:56:09;101019.28;;;9.45;100.00
62333;BME280;48624;49.812;8.562;2022-10-31T04:58:35;101018.69;;;9.40;100.00
62333;BME280;48624;49.812;8.562;2022-10-31T05:01:00;101024.59;;;9.61;100.00
62333;BME280;48624;49.812;8.562;2022-10-31T05:03:25;101016.50;;;9.64;100.00
62333;BME280;48624;49.812;8.562;2022-10-31T05:05:51;101021.19;;;9.75;100.00
62333;BME280;48624;49.812;8.562;2022-10-31T05:08:16;101023.69;;;9.78;100.00
62333;BME280;48624;49.812;8.562;2022-10-31T05:10:41;101017.34;;;9.81;100.00
62333;BME280;48624;49.812;8.562;2022-10-31T05:13:07;101011.91;;;9.68;100.00
62333;BME280;48624;49.812;8.562;2022-10-31T05:15:33;101023.84;;;9.75;100.00
62333;BME280;48624;49.812;8.562;2022-10-31T05:17:58;101014.19;;;9.74;100.00
62333;BME280;48624;49.812;8.562;2022-10-31T05:20:26;101013.44;;;9.72;100.00
62333;BME280;48624;49.812;8.562;2022-10-31T05:22:54;101009.75;;;9.75;100.00
62333;BME280;48624;49.812;8.562;2022-10-31T05:25:21;101013.09;;;9.78;100.00
62333;BME280;48624;49.812;8.562;2022-10-31T05:27:49;101019.22;;;9.79;100.00
62333;BME280;48624;49.812;8.562;2022-10-31T05:30:18;101013.09;;;9.78;100.00
62333;BME280;48624;49.812;8.562;2022-10-31T05:32:45;101019.16;;;9.80;100.00
62333;BME280;48624;49.812;8.562;2022-10-31T05:35:15;101015.19;;;9.71;100.00
62333;BME280;48624;49.812;8.562;2022-10-31T05:37:41;101022.88;;;9.76;100.00
62333;BME280;48624;49.812;8.562;2022-10-31T05:40:09;101014.88;;;9.62;100.00
62333;BME280;48624;49.812;8.562;2022-10-31T05:42:35;101015.31;;;9.70;100.00
62333;BME280;48624;49.812;8.562;2022-10-31T05:45:01;101026.78;;;9.53;100.00
62333;BME280;48624;49.812;8.562;2022-10-31T05:47:27;101024.09;;;9.70;100.00
62333;BME280;48624;49.812;8.562;2022-10-31T05:49:53;101016.63;;;9.45;100.00
62333;BME280;48624;49.812;8.562;2022-10-31T05:52:19;101014.44;;;9.53;100.00
62333;BME280;48624;49.812;8.562;2022-10-31T05:54:45;101018.72;;;9.56;100.00
62333;BME280;48624;49.812;8.562;2022-10-31T05:57:10;101021.25;;;9.57;100.00
62333;BME280;48624;49.812;8.562;2022-10-31T05:59:35;101015.72;;;9.62;100.00
62333;BME280;48624;49.812;8.562;2022-10-31T06:02:00;101010.91;;;9.37;100.00
62333;BME280;48624;49.812;8.562;2022-10-31T06:04:26;101015.16;;;9.23;100.00
62333;BME280;48624;49.812;8.562;2022-10-31T06:06:51;101010.84;;;9.38;100.00
62333;BME280;48624;49.812;8.562;2022-10-31T06:09:16;101011.97;;;9.50;100.00
62333;BME280;48624;49.812;8.562;2022-10-31T06:11:42;101015.44;;;9.51;100.00
62333;BME280;48624;49.812;8.562;2022-10-31T06:14:07;101006.94;;;9.46;100.00
62333;BME280;48624;49.812;8.562;2022-10-31T06:16:33;101010.38;;;9.30;100.00
62333;BME280;48624;49.812;8.562;2022-10-31T06:18:58;101005.38;;;9.41;100.00
62333;BME280;48624;49.812;8.562;2022-10-31T06:21:24;101004.44;;;9.42;100.00
62333;BME280;48624;49.812;8.562;2022-10-31T06:23:49;101003.72;;;9.23;100.00
62333;BME280;48624;49.812;8.562;2022-10-31T06:26:14;101005.56;;;9.38;100.00
62333;BME280;48624;49.812;8.562;2022-10-31T06:28:40;101007.19;;;9.41;100.00
62333;BME280;48624;49.812;8.562;2022-10-31T06:31:05;101019.97;;;9.49;100.00
62333;BME280;48624;49.812;8.562;2022-10-31T06:33:30;101018.34;;;9.62;100.00
62333;BME280;48624;49.812;8.562;2022-10-31T06:35:57;101009.41;;;9.49;100.00
62333;BME280;48624;49.812;8.562;2022-10-31T06:38:22;101021.88;;;9.63;100.00
62333;BME280;48624;49.812;8.562;2022-10-31T06:40:48;101020.75;;;9.67;100.00
62333;BME280;48624;49.812;8.562;2022-10-31T06:43:13;101022.13;;;9.74;100.00
62333;BME280;48624;49.812;8.562;2022-10-31T06:45:40;101013.00;;;9.80;100.00
62333;BME280;48624;49.812;8.562;2022-10-31T06:48:05;101018.03;;;9.68;100.00
62333;BME280;48624;49.812;8.562;2022-10-31T06:50:31;101015.81;;;9.44;100.00
62333;BME280;48624;49.812;8.562;2022-10-31T06:52:57;101013.41;;;9.56;100.00
62333;BME280;48624;49.812;8.562;2022-10-31T06:55:24;101017.00;;;9.55;100.00
62333;BME280;48624;49.812;8.562;2022-10-31T06:57:54;101017.84;;;9.55;100.00
62333;BME280;48624;49.812;8.562;2022-10-31T07:00:20;101019.91;;;9.50;100.00
62333;BME280;48624;49.812;8.562;2022-10-31T07:02:55;101012.38;;;9.42;100.00
62333;BME280;48624;49.812;8.562;2022-10-31T07:05:21;101014.81;;;9.63;100.00
62333;BME280;48624;49.812;8.562;2022-10-31T07:07:46;101015.81;;;9.77;100.00
62333;BME280;48624;49.812;8.562;2022-10-31T07:10:12;101023.84;;;9.75;100.00
62333;BME280;48624;49.812;8.562;2022-10-31T07:12:37;101024.94;;;9.71;100.00
62333;BME280;48624;49.812;8.562;2022-10-31T07:15:03;101022.88;;;9.76;100.00
62333;BME280;48624;49.812;8.562;2022-10-31T07:17:28;101023.31;;;9.68;100.00
62333;BME280;48624;49.812;8.562;2022-10-31T07:19:54;101020.00;;;9.81;100.00
62333;BME280;48624;49.812;8.562;2022-10-31T07:22:19;101023.84;;;9.75;100.00
62333;BME280;48624;49.812;8.562;2022-10-31T07:24:44;101022.31;;;9.87;100.00
62333;BME280;48624;49.812;8.562;2022-10-31T07:27:09;101021.94;;;9.61;100.00
62333;BME280;48624;49.812;8.562;2022-10-31T07:29:35;101014.53;;;9.84;100.00
62333;BME280;48624;49.812;8.562;2022-10-31T07:32:00;101027.75;;;10.00;100.00
62333;BME280;48624;49.812;8.562;2022-10-31T07:34:26;101020.59;;;9.86;100.00
62333;BME280;48624;49.812;8.562;2022-10-31T07:36:52;101016.94;;;9.89;100.00
62333;BME280;48624;49.812;8.562;2022-10-31T07:39:17;101027.28;;;9.77;100.00
62333;BME280;48624;49.812;8.562;2022-10-31T07:41:42;101014.44;;;9.85;100.00
62333;BME280;48624;49.812;8.562;2022-10-31T07:44:07;101024.25;;;9.83;100.00
62333;BME280;48624;49.812;8.562;2022-10-31T07:46:33;101014.88;;;9.78;100.00
62333;BME280;48624;49.812;8.562;2022-10-31T07:48:58;101013.25;;;10.07;100.00
62333;BME280;48624;49.812;8.562;2022-10-31T07:51:23;101013.00;;;10.12;100.00
62333;BME280;48624;49.812;8.562;2022-10-31T07:53:49;101008.63;;;10.11;100.00
62333;BME280;48624;49.812;8.562;2022-10-31T07:56:14;101016.81;;;10.22;100.00
62333;BME280;48624;49.812;8.562;2022-10-31T07:58:40;101014.75;;;10.27;100.00
62333;BME280;48624;49.812;8.562;2022-10-31T08:01:05;101016.84;;;10.37;100.00
62333;BME280;48624;49.812;8.562;2022-10-31T08:03:30;101016.69;;;10.40;100.00
62333;BME280;48624;49.812;8.562;2022-10-31T08:05:56;101020.63;;;10.49;100.00
62333;BME280;48624;49.812;8.562;2022-10-31T08:08:21;101017.63;;;10.55;100.00
62333;BME280;48624;49.812;8.562;2022-10-31T08:10:46;101013.09;;;10.57;100.00
62333;BME280;48624;49.812;8.562;2022-10-31T08:13:13;101010.44;;;10.72;100.00
62333;BME280;48624;49.812;8.562;2022-10-31T08:15:39;101014.38;;;10.80;100.00
62333;BME280;48624;49.812;8.562;2022-10-31T08:18:11;101009.25;;;10.77;100.00
62333;BME280;48624;49.812;8.562;2022-10-31T08:20:37;101007.50;;;10.62;100.00
62333;BME280;48624;49.812;8.562;2022-10-31T08:23:04;101006.41;;;10.95;100.00
62333;BME280;48624;49.812;8.562;2022-10-31T08:25:31;101009.13;;;11.24;100.00
62333;BME280;48624;49.812;8.562;2022-10-31T08:27:57;101006.34;;;11.26;100.00
62333;BME280;48624;49.812;8.562;2022-10-31T08:30:25;100995.38;;;11.32;100.00
62333;BME280;48624;49.812;8.562;2022-10-31T08:32:59;100999.91;;;11.30;100.00
62333;BME280;48624;49.812;8.562;2022-10-31T08:35:25;100996.94;;;11.49;100.00
62333;BME280;48624;49.812;8.562;2022-10-31T08:37:54;100998.06;;;11.74;100.00
62333;BME280;48624;49.812;8.562;2022-10-31T08:40:20;100997.97;;;11.61;100.00
62333;BME280;48624;49.812;8.562;2022-10-31T08:42:45;100996.28;;;11.87;100.00
62333;BME280;48624;49.812;8.562;2022-10-31T08:45:11;100994.06;;;11.66;100.00
62333;BME280;48624;49.812;8.562;2022-10-31T08:47:36;100992.00;;;11.72;100.00
62333;BME280;48624;49.812;8.562;2022-10-31T08:50:02;100982.97;;;11.74;100.00
62333;BME280;48624;49.812;8.562;2022-10-31T08:52:27;100983.06;;;12.00;100.00
62333;BME280;48624;49.812;8.562;2022-10-31T08:54:52;100972.41;;;11.87;100.00
62333;BME280;48624;49.812;8.562;2022-10-31T08:57:18;100978.16;;;11.94;100.00
62333;BME280;48624;49.812;8.562;2022-10-31T08:59:43;100979.97;;;12.21;100.00
62333;BME280;48624;49.812;8.562;2022-10-31T09:02:08;100976.94;;;12.27;100.00
62333;BME280;48624;49.812;8.562;2022-10-31T09:04:33;100977.31;;;12.21;100.00
62333;BME280;48624;49.812;8.562;2022-10-31T09:06:59;100985.97;;;12.38;100.00
62333;BME280;48624;49.812;8.562;2022-10-31T09:09:24;100988.81;;;12.75;100.00
62333;BME280;48624;49.812;8.562;2022-10-31T09:11:49;100992.09;;;12.79;100.00
62333;BME280;48624;49.812;8.562;2022-10-31T09:14:15;100991.34;;;13.02;100.00
62333;BME280;48624;49.812;8.562;2022-10-31T09:16:40;100990.28;;;13.05;100.00
62333;BME280;48624;49.812;8.562;2022-10-31T09:19:05;100986.44;;;13.48;100.00
62333;BME280;48624;49.812;8.562;2022-10-31T09:21:30;100983.75;;;13.35;100.00
62333;BME280;48624;49.812;8.562;2022-10-31T09:23:56;100980.09;;;13.62;99.85
62333;BME280;48624;49.812;8.562;2022-10-31T09:26:21;100984.13;;;13.68;99.00
62333;BME280;48624;49.812;8.562;2022-10-31T09:28:46;100981.47;;;13.68;99.16
62333;BME280;48624;49.812;8.562;2022-10-31T09:31:12;100975.09;;;13.95;98.51
62333;BME280;48624;49.812;8.562;2022-10-31T09:33:37;100974.50;;;14.02;96.97
62333;BME280;48624;49.812;8.562;2022-10-31T09:36:03;100972.38;;;13.83;96.74
62333;BME280;48624;49.812;8.562;2022-10-31T09:38:28;100977.41;;;14.24;96.73
62333;BME280;48624;49.812;8.562;2022-10-31T09:51:55;100968.03;;;14.90;92.20
62333;BME280;48624;49.812;8.562;2022-10-31T09:54:38;100968.75;;;14.80;92.79
62333;BME280;48624;49.812;8.562;2022-10-31T09:57:12;100962.44;;;15.16;90.90
62333;BME280;48624;49.812;8.562;2022-10-31T09:59:39;100961.94;;;15.22;91.20
62333;BME280;48624;49.812;8.562;2022-10-31T10:02:17;100960.34;;;15.31;89.74
62333;BME280;48624;49.812;8.562;2022-10-31T10:21:46;100954.03;;;15.99;87.29
62333;BME280;48624;49.812;8.562;2022-10-31T10:26:43;100949.28;;;16.02;87.37
62333;BME280;48624;49.812;8.562;2022-10-31T10:29:37;100942.38;;;16.00;85.46
62333;BME280;48624;49.812;8.562;2022-10-31T10:32:12;100943.38;;;16.20;86.57
62333;BME280;48624;49.812;8.562;2022-10-31T10:34:44;100943.63;;;16.17;86.15
62333;BME280;48624;49.812;8.562;2022-10-31T10:37:23;100940.25;;;15.71;86.60
62333;BME280;48624;49.812;8.562;2022-10-31T10:39:53;100927.47;;;16.18;86.28
62333;BME280;48624;49.812;8.562;2022-10-31T10:42:21;100935.81;;;16.46;85.51
62333;BME280;48624;49.812;8.562;2022-10-31T10:45:16;100938.28;;;16.59;83.94
62333;BME280;48624;49.812;8.562;2022-10-31T10:50:52;100919.44;;;16.61;84.79
62333;BME280;48624;49.812;8.562;2022-10-31T10:53:37;100921.81;;;16.85;83.21
62333;BME280;48624;49.812;8.562;2022-10-31T10:56:22;100922.72;;;16.96;82.64
62333;BME280;48624;49.812;8.562;2022-10-31T10:58:52;100909.56;;;17.14;83.06
62333;BME280;48624;49.812;8.562;2022-10-31T11:01:19;100910.91;;;17.59;81.38
62333;BME280;48624;49.812;8.562;2022-10-31T11:03:44;100911.69;;;17.30;81.32
62333;BME280;48624;49.812;8.562;2022-10-31T11:06:22;100908.47;;;17.36;81.04
62333;BME280;48624;49.812;8.562;2022-10-31T11:08:51;100903.22;;;17.15;82.30
62333;BME280;48624;49.812;8.562;2022-10-31T11:13:57;100892.47;;;17.85;79.16
62333;BME280;48624;49.812;8.562;2022-10-31T11:18:50;100880.75;;;17.86;80.39
62333;BME280;48624;49.812;8.562;2022-10-31T11:21:24;100872.69;;;17.96;79.28
62333;BME280;48624;49.812;8.562;2022-10-31T11:24:10;100870.88;;;17.77;79.08
62333;BME280;48624;49.812;8.562;2022-10-31T11:26:38;100868.19;;;17.97;79.28
62333;BME280;48624;49.812;8.562;2022-10-31T11:29:05;100860.44;;;18.03;79.58
62333;BME280;48624;49.812;8.562;2022-10-31T11:31:32;100860.97;;;18.37;78.02
62333;BME280;48624;49.812;8.562;2022-10-31T11:34:01;100852.97;;;18.55;76.64
62333;BME280;48624;49.812;8.562;2022-10-31T11:36:34;100850.13;;;18.19;75.64
62333;BME280;48624;49.812;8.562;2022-10-31T11:39:03;100846.13;;;18.42;77.28
62333;BME280;48624;49.812;8.562;2022-10-31T11:41:32;100840.88;;;18.41;77.55
62333;BME280;48624;49.812;8.562;2022-10-31T11:46:35;100837.13;;;18.24;75.82
62333;BME280;48624;49.812;8.562;2022-10-31T11:49:03;100837.81;;;18.92;76.02
62333;BME280;48624;49.812;8.562;2022-10-31T11:51:33;100834.25;;;19.29;73.74
62333;BME280;48624;49.812;8.562;2022-10-31T11:54:01;100836.88;;;19.21;73.88
62333;BME280;48624;49.812;8.562;2022-10-31T11:56:37;100836.78;;;19.67;71.86
62333;BME280;48624;49.812;8.562;2022-10-31T11:59:14;100834.25;;;19.65;71.39
62333;BME280;48624;49.812;8.562;2022-10-31T12:01:46;100835.41;;;19.26;72.68
62333;BME280;48624;49.812;8.562;2022-10-31T12:04:13;100821.94;;;19.63;72.48
62333;BME280;48624;49.812;8.562;2022-10-31T12:06:40;100814.97;;;19.70;72.93
62333;BME280;48624;49.812;8.562;2022-10-31T12:14:58;100815.50;;;19.74;71.35
62333;BME280;48624;49.812;8.562;2022-10-31T12:31:28;100794.03;;;19.19;72.68
62333;BME280;48624;49.812;8.562;2022-10-31T12:34:32;100786.72;;;19.48;72.08
62333;BME280;48624;49.812;8.562;2022-10-31T12:37:22;100782.88;;;19.68;71.09
62333;BME280;48624;49.812;8.562;2022-10-31T12:42:53;100755.88;;;19.34;73.94
62333;BME280;48624;49.812;8.562;2022-10-31T12:48:42;100746.34;;;19.39;72.98
62333;BME280;48624;49.812;8.562;2022-10-31T12:51:26;100748.88;;;19.59;72.03
62333;BME280;48624;49.812;8.562;2022-10-31T12:59:30;100740.00;;;19.22;74.60
62333;BME280;48624;49.812;8.562;2022-10-31T13:02:24;100728.78;;;19.45;73.23
62333;BME280;48624;49.812;8.562;2022-10-31T13:04:56;100727.94;;;19.45;73.09
62333;BME280;48624;49.812;8.562;2022-10-31T13:12:34;100725.91;;;19.65;73.03
62333;BME280;48624;49.812;8.562;2022-10-31T13:15:11;100729.16;;;19.95;70.90
62333;BME280;48624;49.812;8.562;2022-10-31T13:18:06;100727.81;;;19.73;71.40
62333;BME280;48624;49.812;8.562;2022-10-31T13:20:42;100725.31;;;19.98;70.45
62333;BME280;48624;49.812;8.562;2022-10-31T13:23:17;100711.78;;;19.89;71.10
62333;BME280;48624;49.812;8.562;2022-10-31T13:25:49;100713.03;;;19.77;71.82
62333;BME280;48624;49.812;8.562;2022-10-31T13:28:47;100703.03;;;19.61;72.22
62333;BME280;48624;49.812;8.562;2022-10-31T13:31:13;100705.63;;;19.71;71.35
62333;BME280;48624;49.812;8.562;2022-10-31T13:37:00;100698.97;;;19.57;72.03
62333;BME280;48624;49.812;8.562;2022-10-31T13:39:08;100679.50;;;19.63;71.26
62333;BME280;48624;49.812;8.562;2022-10-31T13:41:46;100668.59;;;19.11;74.37
62333;BME280;48624;49.812;8.562;2022-10-31T13:44:14;100661.53;;;18.74;76.93
62333;BME280;48624;49.812;8.562;2022-10-31T13:46:43;100657.38;;;18.98;74.87
62333;BME280;48624;49.812;8.562;2022-10-31T13:54:42;100648.78;;;18.76;76.86
62333;BME280;48624;49.812;8.562;2022-10-31T13:57:27;100641.50;;;18.86;76.00
62333;BME280;48624;49.812;8.562;2022-10-31T13:59:58;100637.50;;;18.91;76.48
62333;BME280;48624;49.812;8.562;2022-10-31T14:02:33;100628.53;;;18.82;76.74
62333;BME280;48624;49.812;8.562;2022-10-31T14:05:16;100619.91;;;18.96;76.12
62333;BME280;48624;49.812;8.562;2022-10-31T14:07:45;100615.88;;;18.92;76.50
62333;BME280;48624;49.812;8.562;2022-10-31T14:10:36;100623.38;;;19.25;76.26
62333;BME280;48624;49.812;8.562;2022-10-31T14:13:35;100647.19;;;19.46;74.85
62333;BME280;48624;49.812;8.562;2022-10-31T14:16:27;100675.53;;;19.93;72.60
62333;BME280;48624;49.812;8.562;2022-10-31T14:19:00;100693.09;;;20.14;72.36
62333;BME280;48624;49.812;8.562;2022-10-31T14:21:29;100687.56;;;20.16;73.38
62333;BME280;48624;49.812;8.562;2022-10-31T14:23:56;100678.84;;;20.22;73.09
62333;BME280;48624;49.812;8.562;2022-10-31T14:31:41;100672.53;;;20.48;70.65
62333;BME280;48624;49.812;8.562;2022-10-31T14:34:26;100677.03;;;20.31;71.17
62333;BME280;48624;49.812;8.562;2022-10-31T14:40:07;100652.06;;;20.72;70.78
62333;BME280;48624;49.812;8.562;2022-10-31T14:45:25;100659.16;;;20.81;70.28
62333;BME280;48624;49.812;8.562;2022-10-31T14:50:59;100672.16;;;20.34;69.78
62333;BME280;48624;49.812;8.562;2022-10-31T14:53:32;100666.59;;;19.93;71.73
62333;BME280;48624;49.812;8.562;2022-10-31T14:55:59;100657.69;;;19.92;71.17
62333;BME280;48624;49.812;8.562;2022-10-31T14:58:31;100662.56;;;19.62;72.83
62333;BME280;48624;49.812;8.562;2022-10-31T15:00:59;100652.19;;;19.41;74.04
62333;BME280;48624;49.812;8.562;2022-10-31T15:03:32;100647.06;;;19.03;75.54
62333;BME280;48624;49.812;8.562;2022-10-31T15:06:11;100641.91;;;19.10;74.76